sensor_id;sensor_type;location;lat;lon;timestamp;temperature;humidity
42099;DHT22;27758;55.900;8.516;2023-03-12T00:02:06;2.30;99.90
42099;DHT22;27758;55.900;8.516;2023-03-12T00:04:32;2.30;99.90
42099;DHT22;27758;55.900;8.516;2023-03-12T00:07:01;2.30;99.90
42099;DHT22;27758;55.900;8.516;2023-03-12T00:09:27;2.20;99.90
42099;DHT22;27758;55.900;8.516;2023-03-12T00:11:52;2.30;99.90
42099;DHT22;27758;55.900;8.516;2023-03-12T00:14:19;2.20;99.90
42099;DHT22;27758;55.900;8.516;2023-03-12T00:16:44;2.20;99.90
42099;DHT22;27758;55.900;8.516;2023-03-12T00:19:12;2.20;99.90
42099;DHT22;27758;55.900;8.516;2023-03-12T00:21:38;2.20;99.90
42099;DHT22;27758;55.900;8.516;2023-03-12T00:24:04;2.20;99.90
42099;DHT22;27758;55.900;8.516;2023-03-12T00:26:32;2.20;99.90
42099;DHT22;27758;55.900;8.516;2023-03-12T00:28:57;2.10;99.90
42099;DHT22;27758;55.900;8.516;2023-03-12T00:31:25;2.10;99.90
42099;DHT22;27758;55.900;8.516;2023-03-12T00:33:52;2.00;99.90
42099;DHT22;27758;55.900;8.516;2023-03-12T00:36:19;2.00;99.90
42099;DHT22;27758;55.900;8.516;2023-03-12T00:38:46;2.00;99.90
42099;DHT22;27758;55.900;8.516;2023-03-12T00:41:11;2.00;99.90
42099;DHT22;27758;55.900;8.516;2023-03-12T00:43:37;2.00;99.90
42099;DHT22;27758;55.900;8.516;2023-03-12T00:46:03;2.00;99.90
42099;DHT22;27758;55.900;8.516;2023-03-12T00:48:29;2.00;99.90
42099;DHT22;27758;55.900;8.516;2023-03-12T00:50:54;2.00;99.90
42099;DHT22;27758;55.900;8.516;2023-03-12T00:53:20;2.10;99.90
42099;DHT22;27758;55.900;8.516;2023-03-12T00:55:46;2.00;99.90
42099;DHT22;27758;55.900;8.516;2023-03-12T00:58:11;2.00;99.90
42099;DHT22;27758;55.900;8.516;2023-03-12T01:00:37;2.00;99.90
42099;DHT22;27758;55.900;8.516;2023-03-12T01:03:03;2.00;99.90
42099;DHT22;27758;55.900;8.516;2023-03-12T01:05:29;1.90;99.90
42099;DHT22;27758;55.900;8.516;2023-03-12T01:07:56;1.80;99.90
42099;DHT22;27758;55.900;8.516;2023-03-12T01:10:22;1.80;99.90
42099;DHT22;27758;55.900;8.516;2023-03-12T01:12:47;1.80;99.90
42099;DHT22;27758;55.900;8.516;2023-03-12T01:15:16;1.80;99.90
42099;DHT22;27758;55.900;8.516;2023-03-12T01:17:42;1.80;99.90
42099;DHT22;27758;55.900;8.516;2023-03-12T01:20:09;1.80;99.90
42099;DHT22;27758;55.900;8.516;2023-03-12T01:22:35;1.70;99.90
42099;DHT22;27758;55.900;8.516;2023-03-12T01:25:01;1.70;99.90
42099;DHT22;27758;55.900;8.516;2023-03-12T01:27:27;1.60;99.90
42099;DHT22;27758;55.900;8.516;2023-03-12T01:29:53;1.50;99.90
42099;DHT22;27758;55.900;8.516;2023-03-12T01:32:19;1.40;99.90
42099;DHT22;27758;55.900;8.516;2023-03-12T01:34:44;1.40;99.90
42099;DHT22;27758;55.900;8.516;2023-03-12T01:37:10;1.30;99.90
42099;DHT22;27758;55.900;8.516;2023-03-12T01:39:36;1.20;99.90
42099;DHT22;27758;55.900;8.516;2023-03-12T01:42:02;1.20;99.90
42099;DHT22;27758;55.900;8.516;2023-03-12T01:44:28;1.10;99.90
42099;DHT22;27758;55.900;8.516;2023-03-12T01:46:54;1.10;99.90
42099;DHT22;27758;55.900;8.516;2023-03-12T01:49:31;1.00;99.90
42099;DHT22;27758;55.900;8.516;2023-03-12T01:52:08;0.90;99.90
42099;DHT22;27758;55.900;8.516;2023-03-12T01:54:45;0.90;99.90
42099;DHT22;27758;55.900;8.516;2023-03-12T01:58:01;0.90;99.90
42099;DHT22;27758;55.900;8.516;2023-03-12T02:00:08;0.80;99.90
42099;DHT22;27758;55.900;8.516;2023-03-12T02:02:36;0.70;99.90
42099;DHT22;27758;55.900;8.516;2023-03-12T02:07:55;0.50;99.90
42099;DHT22;27758;55.900;8.516;2023-03-12T02:10:22;0.40;99.90
42099;DHT22;27758;55.900;8.516;2023-03-12T02:12:48;0.30;99.90
42099;DHT22;27758;55.900;8.516;2023-03-12T02:15:13;0.30;99.90
42099;DHT22;27758;55.900;8.516;2023-03-12T02:17:39;0.30;99.90
42099;DHT22;27758;55.900;8.516;2023-03-12T02:20:11;0.20;99.90
42099;DHT22;27758;55.900;8.516;2023-03-12T02:22:40;0.20;99.90
42099;DHT22;27758;55.900;8.516;2023-03-12T02:27:50;0.40;99.90
42099;DHT22;27758;55.900;8.516;2023-03-12T02:30:17;0.50;99.90
42099;DHT22;27758;55.900;8.516;2023-03-12T02:32:44;0.40;99.90
42099;DHT22;27758;55.900;8.516;2023-03-12T02:35:13;0.40;99.90
42099;DHT22;27758;55.900;8.516;2023-03-12T02:37:54;0.40;99.90
42099;DHT22;27758;55.900;8.516;2023-03-12T02:40:33;0.50;99.90
42099;DHT22;27758;55.900;8.516;2023-03-12T02:43:02;0.50;99.90
42099;DHT22;27758;55.900;8.516;2023-03-12T02:45:30;0.40;99.90
42099;DHT22;27758;55.900;8.516;2023-03-12T02:47:56;0.50;99.90
42099;DHT22;27758;55.900;8.516;2023-03-12T02:50:21;0.50;99.90
42099;DHT22;27758;55.900;8.516;2023-03-12T02:52:47;0.50;99.90
42099;DHT22;27758;55.900;8.516;2023-03-12T02:55:13;0.50;99.90
42099;DHT22;27758;55.900;8.516;2023-03-12T02:57:38;0.60;99.90
42099;DHT22;27758;55.900;8.516;2023-03-12T03:00:07;0.60;99.90
42099;DHT22;27758;55.900;8.516;2023-03-12T03:02:37;0.70;99.90
42099;DHT22;27758;55.900;8.516;2023-03-12T03:05:03;0.70;99.90
42099;DHT22;27758;55.900;8.516;2023-03-12T03:07:29;0.80;99.90
42099;DHT22;27758;55.900;8.516;2023-03-12T03:09:55;0.80;99.90
42099;DHT22;27758;55.900;8.516;2023-03-12T03:12:21;0.80;99.90
42099;DHT22;27758;55.900;8.516;2023-03-12T03:14:47;0.90;99.90
42099;DHT22;27758;55.900;8.516;2023-03-12T03:17:13;0.80;99.90
42099;DHT22;27758;55.900;8.516;2023-03-12T03:19:39;0.90;99.90
42099;DHT22;27758;55.900;8.516;2023-03-12T03:22:05;0.90;99.90
42099;DHT22;27758;55.900;8.516;2023-03-12T03:24:31;0.90;99.90
42099;DHT22;27758;55.900;8.516;2023-03-12T03:26:56;0.90;99.90
42099;DHT22;27758;55.900;8.516;2023-03-12T03:29:22;1.00;99.90
42099;DHT22;27758;55.900;8.516;2023-03-12T03:31:48;1.00;99.90
42099;DHT22;27758;55.900;8.516;2023-03-12T03:34:13;1.00;99.90
42099;DHT22;27758;55.900;8.516;2023-03-12T03:36:39;1.00;99.90
42099;DHT22;27758;55.900;8.516;2023-03-12T03:39:05;1.00;99.90
42099;DHT22;27758;55.900;8.516;2023-03-12T03:41:30;0.90;99.90
42099;DHT22;27758;55.900;8.516;2023-03-12T03:43:58;0.80;99.90
42099;DHT22;27758;55.900;8.516;2023-03-12T03:46:24;0.80;99.90
42099;DHT22;27758;55.900;8.516;2023-03-12T03:48:50;0.80;99.90
42099;DHT22;27758;55.900;8.516;2023-03-12T03:51:16;0.70;99.90
42099;DHT22;27758;55.900;8.516;2023-03-12T03:53:42;0.80;99.90
42099;DHT22;27758;55.900;8.516;2023-03-12T03:56:10;0.70;99.90
42099;DHT22;27758;55.900;8.516;2023-03-12T03:58:36;0.60;99.90
42099;DHT22;27758;55.900;8.516;2023-03-12T04:01:02;0.60;99.90
42099;DHT22;27758;55.900;8.516;2023-03-12T04:03:28;0.60;99.90
42099;DHT22;27758;55.900;8.516;2023-03-12T04:05:56;0.40;99.90
42099;DHT22;27758;55.900;8.516;2023-03-12T04:08:21;0.30;99.90
42099;DHT22;27758;55.900;8.516;2023-03-12T04:10:47;0.30;99.90
42099;DHT22;27758;55.900;8.516;2023-03-12T04:13:13;0.20;99.90
42099;DHT22;27758;55.900;8.516;2023-03-12T04:15:45;0.20;99.90
42099;DHT22;27758;55.900;8.516;2023-03-12T04:18:11;0.20;99.90
42099;DHT22;27758;55.900;8.516;2023-03-12T04:20:37;0.10;99.90
42099;DHT22;27758;55.900;8.516;2023-03-12T04:23:02;0.10;99.90
42099;DHT22;27758;55.900;8.516;2023-03-12T04:25:28;0.10;99.90
42099;DHT22;27758;55.900;8.516;2023-03-12T04:27:54;0.10;99.90
42099;DHT22;27758;55.900;8.516;2023-03-12T04:30:19;0.10;99.90
42099;DHT22;27758;55.900;8.516;2023-03-12T04:32:45;0.00;99.90
42099;DHT22;27758;55.900;8.516;2023-03-12T04:35:11;0.00;99.90
42099;DHT22;27758;55.900;8.516;2023-03-12T04:37:36;-0.10;99.90
42099;DHT22;27758;55.900;8.516;2023-03-12T04:40:03;-0.10;99.90
42099;DHT22;27758;55.900;8.516;2023-03-12T04:42:33;-0.10;99.90
42099;DHT22;27758;55.900;8.516;2023-03-12T04:44:59;-0.20;99.90
42099;DHT22;27758;55.900;8.516;2023-03-12T04:47:25;-0.20;99.90
42099;DHT22;27758;55.900;8.516;2023-03-12T04:49:51;-0.20;99.90
42099;DHT22;27758;55.900;8.516;2023-03-12T04:52:16;-0.20;99.90
42099;DHT22;27758;55.900;8.516;2023-03-12T04:54:43;-0.20;99.90
42099;DHT22;27758;55.900;8.516;2023-03-12T04:57:09;-0.20;99.90
42099;DHT22;27758;55.900;8.516;2023-03-12T04:59:35;-0.10;99.90
42099;DHT22;27758;55.900;8.516;2023-03-12T05:02:00;-0.10;99.90
42099;DHT22;27758;55.900;8.516;2023-03-12T05:04:26;-0.20;99.90
42099;DHT22;27758;55.900;8.516;2023-03-12T05:06:52;-0.30;99.90
42099;DHT22;27758;55.900;8.516;2023-03-12T05:09:17;-0.30;99.90
42099;DHT22;27758;55.900;8.516;2023-03-12T05:11:43;-0.40;99.90
42099;DHT22;27758;55.900;8.516;2023-03-12T05:14:12;-0.40;99.90
42099;DHT22;27758;55.900;8.516;2023-03-12T05:16:37;-0.50;99.90
42099;DHT22;27758;55.900;8.516;2023-03-12T05:19:03;-0.50;99.90
42099;DHT22;27758;55.900;8.516;2023-03-12T05:21:30;-0.50;99.90
42099;DHT22;27758;55.900;8.516;2023-03-12T05:23:55;-0.50;99.90
42099;DHT22;27758;55.900;8.516;2023-03-12T05:26:29;-0.50;99.90
42099;DHT22;27758;55.900;8.516;2023-03-12T05:28:59;-0.50;99.90
42099;DHT22;27758;55.900;8.516;2023-03-12T05:31:26;-0.40;99.90
42099;DHT22;27758;55.900;8.516;2023-03-12T05:33:52;-0.40;99.90
42099;DHT22;27758;55.900;8.516;2023-03-12T05:36:18;-0.40;99.90
42099;DHT22;27758;55.900;8.516;2023-03-12T05:38:44;-0.60;99.90
42099;DHT22;27758;55.900;8.516;2023-03-12T05:41:18;-0.70;99.90
42099;DHT22;27758;55.900;8.516;2023-03-12T05:43:44;-0.70;99.90
42099;DHT22;27758;55.900;8.516;2023-03-12T05:46:10;-0.70;99.90
42099;DHT22;27758;55.900;8.516;2023-03-12T05:48:36;-0.70;99.90
42099;DHT22;27758;55.900;8.516;2023-03-12T05:51:02;-0.80;99.90
42099;DHT22;27758;55.900;8.516;2023-03-12T05:53:27;-0.80;99.90
42099;DHT22;27758;55.900;8.516;2023-03-12T05:55:53;-0.80;99.90
42099;DHT22;27758;55.900;8.516;2023-03-12T05:58:19;-0.70;99.90
42099;DHT22;27758;55.900;8.516;2023-03-12T06:00:45;-0.60;99.90
42099;DHT22;27758;55.900;8.516;2023-03-12T06:03:11;-0.70;99.90
42099;DHT22;27758;55.900;8.516;2023-03-12T06:05:37;-0.70;99.90
42099;DHT22;27758;55.900;8.516;2023-03-12T06:08:04;-0.60;99.90
42099;DHT22;27758;55.900;8.516;2023-03-12T06:10:30;-0.50;99.90
42099;DHT22;27758;55.900;8.516;2023-03-12T06:12:56;-0.50;99.90
42099;DHT22;27758;55.900;8.516;2023-03-12T06:15:22;-0.40;99.90
42099;DHT22;27758;55.900;8.516;2023-03-12T06:17:48;-0.40;99.90
42099;DHT22;27758;55.900;8.516;2023-03-12T06:20:14;-0.30;99.90
42099;DHT22;27758;55.900;8.516;2023-03-12T06:22:40;-0.20;99.90
42099;DHT22;27758;55.900;8.516;2023-03-12T06:25:06;0.00;99.90
42099;DHT22;27758;55.900;8.516;2023-03-12T06:27:31;0.00;99.90
42099;DHT22;27758;55.900;8.516;2023-03-12T06:29:57;0.00;99.90
42099;DHT22;27758;55.900;8.516;2023-03-12T06:32:23;-0.10;99.90
42099;DHT22;27758;55.900;8.516;2023-03-12T06:34:49;-0.10;99.90
42099;DHT22;27758;55.900;8.516;2023-03-12T06:37:14;-0.10;99.90
42099;DHT22;27758;55.900;8.516;2023-03-12T06:39:40;0.00;99.90
42099;DHT22;27758;55.900;8.516;2023-03-12T06:42:06;0.00;99.90
42099;DHT22;27758;55.900;8.516;2023-03-12T06:44:32;0.10;99.90
42099;DHT22;27758;55.900;8.516;2023-03-12T06:46:58;0.10;99.90
42099;DHT22;27758;55.900;8.516;2023-03-12T06:49:24;0.10;99.90
42099;DHT22;27758;55.900;8.516;2023-03-12T06:51:50;0.30;99.90
42099;DHT22;27758;55.900;8.516;2023-03-12T06:54:16;0.40;99.90
42099;DHT22;27758;55.900;8.516;2023-03-12T06:56:41;0.50;99.90
42099;DHT22;27758;55.900;8.516;2023-03-12T06:59:07;0.70;99.90
42099;DHT22;27758;55.900;8.516;2023-03-12T07:01:35;0.80;99.90
42099;DHT22;27758;55.900;8.516;2023-03-12T07:04:01;0.90;99.90
42099;DHT22;27758;55.900;8.516;2023-03-12T07:06:27;1.00;99.90
42099;DHT22;27758;55.900;8.516;2023-03-12T07:08:52;1.00;99.90
42099;DHT22;27758;55.900;8.516;2023-03-12T07:11:18;1.00;99.90
42099;DHT22;27758;55.900;8.516;2023-03-12T07:13:44;1.10;99.90
42099;DHT22;27758;55.900;8.516;2023-03-12T07:16:10;1.30;99.90
42099;DHT22;27758;55.900;8.516;2023-03-12T07:18:36;1.30;99.90
42099;DHT22;27758;55.900;8.516;2023-03-12T07:21:02;1.40;99.90
42099;DHT22;27758;55.900;8.516;2023-03-12T07:23:28;1.50;99.90
42099;DHT22;27758;55.900;8.516;2023-03-12T07:25:54;1.70;99.90
42099;DHT22;27758;55.900;8.516;2023-03-12T07:28:20;1.70;99.90
42099;DHT22;27758;55.900;8.516;2023-03-12T07:30:46;1.80;99.90
42099;DHT22;27758;55.900;8.516;2023-03-12T07:33:16;1.80;99.90
42099;DHT22;27758;55.900;8.516;2023-03-12T07:35:42;1.90;99.90
42099;DHT22;27758;55.900;8.516;2023-03-12T07:38:08;2.10;99.90
42099;DHT22;27758;55.900;8.516;2023-03-12T07:40:35;2.20;99.90
42099;DHT22;27758;55.900;8.516;2023-03-12T07:43:01;2.30;99.90
42099;DHT22;27758;55.900;8.516;2023-03-12T07:45:30;2.40;99.90
42099;DHT22;27758;55.900;8.516;2023-03-12T07:47:55;2.50;99.90
42099;DHT22;27758;55.900;8.516;2023-03-12T07:50:21;2.60;99.90
42099;DHT22;27758;55.900;8.516;2023-03-12T07:52:47;2.70;99.90
42099;DHT22;27758;55.900;8.516;2023-03-12T07:55:13;2.70;99.90
42099;DHT22;27758;55.900;8.516;2023-03-12T07:57:39;2.70;99.90
42099;DHT22;27758;55.900;8.516;2023-03-12T08:00:05;2.70;99.90
42099;DHT22;27758;55.900;8.516;2023-03-12T08:02:32;2.70;99.90
42099;DHT22;27758;55.900;8.516;2023-03-12T08:04:59;2.70;99.90
42099;DHT22;27758;55.900;8.516;2023-03-12T08:07:25;2.60;99.90
42099;DHT22;27758;55.900;8.516;2023-03-12T08:09:57;2.50;99.90
42099;DHT22;27758;55.900;8.516;2023-03-12T08:12:23;2.50;99.90
42099;DHT22;27758;55.900;8.516;2023-03-12T08:14:48;2.70;99.90
42099;DHT22;27758;55.900;8.516;2023-03-12T08:17:14;2.80;99.90
42099;DHT22;27758;55.900;8.516;2023-03-12T08:19:40;2.70;99.90
42099;DHT22;27758;55.900;8.516;2023-03-12T08:22:07;2.80;99.90
42099;DHT22;27758;55.900;8.516;2023-03-12T08:24:32;2.90;99.90
42099;DHT22;27758;55.900;8.516;2023-03-12T08:26:59;3.00;99.90
42099;DHT22;27758;55.900;8.516;2023-03-12T08:29:24;2.90;99.90
42099;DHT22;27758;55.900;8.516;2023-03-12T08:31:51;2.90;99.90
42099;DHT22;27758;55.900;8.516;2023-03-12T08:34:17;3.00;99.90
42099;DHT22;27758;55.900;8.516;2023-03-12T08:36:42;3.10;99.90
42099;DHT22;27758;55.900;8.516;2023-03-12T08:39:08;3.30;99.90
42099;DHT22;27758;55.900;8.516;2023-03-12T08:41:34;3.40;99.90
42099;DHT22;27758;55.900;8.516;2023-03-12T08:44:00;3.60;99.90
42099;DHT22;27758;55.900;8.516;2023-03-12T08:46:26;3.70;99.90
42099;DHT22;27758;55.900;8.516;2023-03-12T08:48:52;3.80;99.90
42099;DHT22;27758;55.900;8.516;2023-03-12T08:51:18;3.90;99.90
42099;DHT22;27758;55.900;8.516;2023-03-12T08:53:43;4.00;99.90
42099;DHT22;27758;55.900;8.516;2023-03-12T08:56:09;3.90;99.90
42099;DHT22;27758;55.900;8.516;2023-03-12T08:58:35;3.90;99.90
42099;DHT22;27758;55.900;8.516;2023-03-12T09:01:01;4.10;99.90
42099;DHT22;27758;55.900;8.516;2023-03-12T09:03:26;4.20;99.90
42099;DHT22;27758;55.900;8.516;2023-03-12T09:06:23;4.30;99.90
42099;DHT22;27758;55.900;8.516;2023-03-12T09:08:48;4.60;99.90
42099;DHT22;27758;55.900;8.516;2023-03-12T09:11:16;4.70;99.90
42099;DHT22;27758;55.900;8.516;2023-03-12T09:13:42;4.70;99.90
42099;DHT22;27758;55.900;8.516;2023-03-12T09:16:08;4.70;99.90
42099;DHT22;27758;55.900;8.516;2023-03-12T09:18:34;4.70;99.90
42099;DHT22;27758;55.900;8.516;2023-03-12T09:21:01;4.70;99.90
42099;DHT22;27758;55.900;8.516;2023-03-12T09:23:27;4.60;99.90
42099;DHT22;27758;55.900;8.516;2023-03-12T09:25:53;4.70;99.90
42099;DHT22;27758;55.900;8.516;2023-03-12T09:28:19;4.90;99.90
42099;DHT22;27758;55.900;8.516;2023-03-12T09:30:46;4.90;99.90
42099;DHT22;27758;55.900;8.516;2023-03-12T09:33:12;5.00;99.90
42099;DHT22;27758;55.900;8.516;2023-03-12T09:35:39;5.10;99.90
42099;DHT22;27758;55.900;8.516;2023-03-12T09:38:05;5.20;99.90
42099;DHT22;27758;55.900;8.516;2023-03-12T09:40:33;5.30;99.90
42099;DHT22;27758;55.900;8.516;2023-03-12T09:43:14;5.30;99.90
42099;DHT22;27758;55.900;8.516;2023-03-12T09:45:44;5.30;99.90
42099;DHT22;27758;55.900;8.516;2023-03-12T09:48:17;4.90;99.90
42099;DHT22;27758;55.900;8.516;2023-03-12T09:50:49;4.70;99.90
42099;DHT22;27758;55.900;8.516;2023-03-12T09:55:48;4.50;99.90
42099;DHT22;27758;55.900;8.516;2023-03-12T09:58:30;4.60;99.90
42099;DHT22;27758;55.900;8.516;2023-03-12T10:01:35;4.70;99.90
42099;DHT22;27758;55.900;8.516;2023-03-12T10:07:11;4.70;99.90
42099;DHT22;27758;55.900;8.516;2023-03-12T10:10:15;4.70;99.90
42099;DHT22;27758;55.900;8.516;2023-03-12T10:13:12;4.50;99.90
42099;DHT22;27758;55.900;8.516;2023-03-12T10:18:20;4.40;99.90
42099;DHT22;27758;55.900;8.516;2023-03-12T10:26:23;4.10;99.90
42099;DHT22;27758;55.900;8.516;2023-03-12T10:29:03;4.10;99.90
42099;DHT22;27758;55.900;8.516;2023-03-12T10:34:16;4.00;99.90
42099;DHT22;27758;55.900;8.516;2023-03-12T10:36:44;3.90;99.90
42099;DHT22;27758;55.900;8.516;2023-03-12T10:39:18;3.80;99.90
42099;DHT22;27758;55.900;8.516;2023-03-12T10:41:47;3.60;99.90
42099;DHT22;27758;55.900;8.516;2023-03-12T10:44:22;3.50;99.90
42099;DHT22;27758;55.900;8.516;2023-03-12T10:47:04;3.30;99.90
42099;DHT22;27758;55.900;8.516;2023-03-12T10:49:33;3.10;99.90
42099;DHT22;27758;55.900;8.516;2023-03-12T10:52:00;2.70;99.90
42099;DHT22;27758;55.900;8.516;2023-03-12T10:54:30;2.60;99.90
42099;DHT22;27758;55.900;8.516;2023-03-12T10:56:56;2.50;99.90
42099;DHT22;27758;55.900;8.516;2023-03-12T10:59:26;2.50;99.90
42099;DHT22;27758;55.900;8.516;2023-03-12T11:01:53;2.50;99.90
42099;DHT22;27758;55.900;8.516;2023-03-12T11:04:25;2.50;99.90
42099;DHT22;27758;55.900;8.516;2023-03-12T11:09:33;2.50;99.90
42099;DHT22;27758;55.900;8.516;2023-03-12T11:11:59;2.60;99.90
42099;DHT22;27758;55.900;8.516;2023-03-12T11:14:28;2.70;99.90
42099;DHT22;27758;55.900;8.516;2023-03-12T11:16:55;2.80;99.90
42099;DHT22;27758;55.900;8.516;2023-03-12T11:19:28;2.80;99.90
42099;DHT22;27758;55.900;8.516;2023-03-12T11:22:01;2.90;99.90
42099;DHT22;27758;55.900;8.516;2023-03-12T11:24:28;3.00;99.90
42099;DHT22;27758;55.900;8.516;2023-03-12T11:29:48;3.10;99.90
42099;DHT22;27758;55.900;8.516;2023-03-12T11:32:23;3.20;99.90
42099;DHT22;27758;55.900;8.516;2023-03-12T11:34:50;3.20;99.90
42099;DHT22;27758;55.900;8.516;2023-03-12T11:39:57;3.20;99.90
42099;DHT22;27758;55.900;8.516;2023-03-12T11:48:24;3.20;99.90
42099;DHT22;27758;55.900;8.516;2023-03-12T11:53:52;3.30;99.90
42099;DHT22;27758;55.900;8.516;2023-03-12T11:56:46;3.20;99.90
42099;DHT22;27758;55.900;8.516;2023-03-12T12:13:12;3.30;99.90
42099;DHT22;27758;55.900;8.516;2023-03-12T12:21:57;3.50;99.90
42099;DHT22;27758;55.900;8.516;2023-03-12T12:24:53;3.70;99.90
42099;DHT22;27758;55.900;8.516;2023-03-12T12:27:27;3.50;99.90
42099;DHT22;27758;55.900;8.516;2023-03-12T12:30:09;3.50;99.90
42099;DHT22;27758;55.900;8.516;2023-03-12T12:35:23;3.30;99.90
42099;DHT22;27758;55.900;8.516;2023-03-12T12:41:15;3.10;99.90
42099;DHT22;27758;55.900;8.516;2023-03-12T12:43:50;3.10;99.90
42099;DHT22;27758;55.900;8.516;2023-03-12T12:46:24;2.90;99.90
42099;DHT22;27758;55.900;8.516;2023-03-12T12:49:03;2.80;99.90
42099;DHT22;27758;55.900;8.516;2023-03-12T12:51:37;2.80;99.90
42099;DHT22;27758;55.900;8.516;2023-03-12T12:54:06;2.90;99.90
42099;DHT22;27758;55.900;8.516;2023-03-12T12:56:54;3.00;99.90
42099;DHT22;27758;55.900;8.516;2023-03-12T13:01:57;3.20;99.90
42099;DHT22;27758;55.900;8.516;2023-03-12T13:04:27;3.30;99.90
42099;DHT22;27758;55.900;8.516;2023-03-12T13:06:56;3.20;99.90
42099;DHT22;27758;55.900;8.516;2023-03-12T13:09:34;3.20;99.90
42099;DHT22;27758;55.900;8.516;2023-03-12T13:12:17;3.30;99.90
42099;DHT22;27758;55.900;8.516;2023-03-12T13:14:45;3.20;99.90
42099;DHT22;27758;55.900;8.516;2023-03-12T13:17:31;3.30;99.90
42099;DHT22;27758;55.900;8.516;2023-03-12T13:25:29;3.10;99.90
42099;DHT22;27758;55.900;8.516;2023-03-12T13:30:55;3.10;99.90
42099;DHT22;27758;55.900;8.516;2023-03-12T13:33:48;3.10;99.90
42099;DHT22;27758;55.900;8.516;2023-03-12T13:41:38;2.90;99.90
42099;DHT22;27758;55.900;8.516;2023-03-12T13:52:26;3.00;99.90
42099;DHT22;27758;55.900;8.516;2023-03-12T13:55:01;3.00;99.90
42099;DHT22;27758;55.900;8.516;2023-03-12T14:01:01;3.10;99.90
42099;DHT22;27758;55.900;8.516;2023-03-12T14:03:40;3.20;99.90
42099;DHT22;27758;55.900;8.516;2023-03-12T14:06:13;3.20;99.90
42099;DHT22;27758;55.900;8.516;2023-03-12T14:17:19;3.00;99.90
42099;DHT22;27758;55.900;8.516;2023-03-12T14:22:42;3.10;99.90
42099;DHT22;27758;55.900;8.516;2023-03-12T14:27:51;3.00;99.90
42099;DHT22;27758;55.900;8.516;2023-03-12T14:33:14;3.00;99.90
42099;DHT22;27758;55.900;8.516;2023-03-12T14:35:45;2.90;99.90
42099;DHT22;27758;55.900;8.516;2023-03-12T14:38:29;2.90;99.90
42099;DHT22;27758;55.900;8.516;2023-03-12T14:41:06;2.80;99.90
42099;DHT22;27758;55.900;8.516;2023-03-12T14:43:40;2.80;99.90
42099;DHT22;27758;55.900;8.516;2023-03-12T14:46:15;2.80;99.90
42099;DHT22;27758;55.900;8.516;2023-03-12T14:48:41;2.80;99.90
42099;DHT22;27758;55.900;8.516;2023-03-12T14:51:21;2.80;99.90
42099;DHT22;27758;55.900;8.516;2023-03-12T14:53:47;2.80;99.90
42099;DHT22;27758;55.900;8.516;2023-03-12T14:58:50;2.70;99.90
42099;DHT22;27758;55.900;8.516;2023-03-12T15:01:22;2.60;99.90
42099;DHT22;27758;55.900;8.516;2023-03-12T15:03:59;2.60;99.90
42099;DHT22;27758;55.900;8.516;2023-03-12T15:06:43;2.40;99.90
42099;DHT22;27758;55.900;8.516;2023-03-12T15:09:30;2.30;99.90
42099;DHT22;27758;55.900;8.516;2023-03-12T15:12:02;2.30;99.90
42099;DHT22;27758;55.900;8.516;2023-03-12T15:14:33;2.20;99.90
42099;DHT22;27758;55.900;8.516;2023-03-12T15:16:59;2.10;99.90
42099;DHT22;27758;55.900;8.516;2023-03-12T15:19:31;2.00;99.90
42099;DHT22;27758;55.900;8.516;2023-03-12T15:21:58;2.00;99.90
42099;DHT22;27758;55.900;8.516;2023-03-12T15:24:24;1.90;99.90
42099;DHT22;27758;55.900;8.516;2023-03-12T15:26:50;1.90;99.90
42099;DHT22;27758;55.900;8.516;2023-03-12T15:29:21;1.80;99.90
42099;DHT22;27758;55.900;8.516;2023-03-12T15:31:59;1.80;99.90
42099;DHT22;27758;55.900;8.516;2023-03-12T15:36:52;1.70;99.90
42099;DHT22;27758;55.900;8.516;2023-03-12T15:39:31;1.70;99.90
42099;DHT22;27758;55.900;8.516;2023-03-12T15:42:15;1.60;99.90
42099;DHT22;27758;55.900;8.516;2023-03-12T15:44:47;1.60;99.90
42099;DHT22;27758;55.900;8.516;2023-03-12T15:47:18;1.60;99.90
42099;DHT22;27758;55.900;8.516;2023-03-12T15:49:49;1.60;99.90
42099;DHT22;27758;55.900;8.516;2023-03-12T15:57:56;1.50;99.90
42099;DHT22;27758;55.900;8.516;2023-03-12T16:00:24;1.50;99.90
42099;DHT22;27758;55.900;8.516;2023-03-12T16:03:02;1.40;99.90
42099;DHT22;27758;55.900;8.516;2023-03-12T16:07:56;1.40;99.90
42099;DHT22;27758;55.900;8.516;2023-03-12T16:10:24;1.40;99.90
42099;DHT22;27758;55.900;8.516;2023-03-12T16:12:58;1.40;99.90
42099;DHT22;27758;55.900;8.516;2023-03-12T16:15:33;1.40;99.90
42099;DHT22;27758;55.900;8.516;2023-03-12T16:18:00;1.40;99.90
42099;DHT22;27758;55.900;8.516;2023-03-12T16:20:26;1.40;99.90
42099;DHT22;27758;55.900;8.516;2023-03-12T16:22:52;1.40;99.90
42099;DHT22;27758;55.900;8.516;2023-03-12T16:25:18;1.30;99.90
42099;DHT22;27758;55.900;8.516;2023-03-12T16:27:54;1.30;99.90
42099;DHT22;27758;55.900;8.516;2023-03-12T16:30:30;1.40;99.90
42099;DHT22;27758;55.900;8.516;2023-03-12T16:32:57;1.30;99.90
42099;DHT22;27758;55.900;8.516;2023-03-12T16:35:23;1.30;99.90
42099;DHT22;27758;55.900;8.516;2023-03-12T16:37:48;1.30;99.90
42099;DHT22;27758;55.900;8.516;2023-03-12T16:40:15;1.30;99.90
42099;DHT22;27758;55.900;8.516;2023-03-12T16:42:47;1.30;99.90
42099;DHT22;27758;55.900;8.516;2023-03-12T16:45:16;1.30;99.90
42099;DHT22;27758;55.900;8.516;2023-03-12T16:47:43;1.30;99.90
42099;DHT22;27758;55.900;8.516;2023-03-12T16:50:17;1.30;99.90
42099;DHT22;27758;55.900;8.516;2023-03-12T16:52:44;1.30;99.90
42099;DHT22;27758;55.900;8.516;2023-03-12T16:55:24;1.30;99.90
42099;DHT22;27758;55.900;8.516;2023-03-12T16:57:53;1.30;99.90
42099;DHT22;27758;55.900;8.516;2023-03-12T17:00:22;1.30;99.90
42099;DHT22;27758;55.900;8.516;2023-03-12T17:02:49;1.30;99.90
42099;DHT22;27758;55.900;8.516;2023-03-12T17:05:16;1.40;99.90
42099;DHT22;27758;55.900;8.516;2023-03-12T17:07:42;1.40;99.90
42099;DHT22;27758;55.900;8.516;2023-03-12T17:10:09;1.40;99.90
42099;DHT22;27758;55.900;8.516;2023-03-12T17:12:38;1.40;99.90
42099;DHT22;27758;55.900;8.516;2023-03-12T17:15:12;1.50;99.90
42099;DHT22;27758;55.900;8.516;2023-03-12T17:17:38;1.40;99.90
42099;DHT22;27758;55.900;8.516;2023-03-12T17:20:04;1.50;99.90
42099;DHT22;27758;55.900;8.516;2023-03-12T17:22:32;1.50;99.90
42099;DHT22;27758;55.900;8.516;2023-03-12T17:24:58;1.50;99.90
42099;DHT22;27758;55.900;8.516;2023-03-12T17:27:24;1.50;99.90
42099;DHT22;27758;55.900;8.516;2023-03-12T17:29:49;1.50;99.90
42099;DHT22;27758;55.900;8.516;2023-03-12T17:32:15;1.50;99.90
42099;DHT22;27758;55.900;8.516;2023-03-12T17:34:41;1.50;99.90
42099;DHT22;27758;55.900;8.516;2023-03-12T17:37:06;1.50;99.90
42099;DHT22;27758;55.900;8.516;2023-03-12T17:39:34;1.50;99.90
42099;DHT22;27758;55.900;8.516;2023-03-12T17:42:00;1.50;99.90
42099;DHT22;27758;55.900;8.516;2023-03-12T17:44:25;1.50;99.90
42099;DHT22;27758;55.900;8.516;2023-03-12T17:46:57;1.50;99.90
42099;DHT22;27758;55.900;8.516;2023-03-12T17:49:22;1.50;99.90
42099;DHT22;27758;55.900;8.516;2023-03-12T17:51:48;1.50;99.90
42099;DHT22;27758;55.900;8.516;2023-03-12T17:54:14;1.50;99.90
42099;DHT22;27758;55.900;8.516;2023-03-12T17:56:40;1.50;99.90
42099;DHT22;27758;55.900;8.516;2023-03-12T17:59:05;1.50;99.90